Time;durP1;ratioP1;P1;durP2;ratioP2;P2;SDS_P1;SDS_P2;PMS_P1;PMS_P2;Temp;Humidity;BMP_temperature;BMP_pressure;BME280_temperature;BME280_humidity;BME280_pressure;Samples;Min_cycle;Max_cycle;Signal;HPM_P1;HPM_P2
2023/12/30 00:01:36;;;;;;;6.97;1.90;;;10.40;76.00;;;;;;5073732;28;20024;-65
2023/12/30 00:04:02;;;;;;;5.07;1.20;;;10.40;76.10;;;;;;5058365;28;20365;-65
2023/12/30 00:06:27;;;;;;;5.72;1.30;;;10.40;76.10;;;;;;5069158;28;20017;-65
2023/12/30 00:08:53;;;;;;;7.05;1.45;;;10.40;76.00;;;;;;5057341;28;20411;-65
2023/12/30 00:11:19;;;;;;;4.55;1.30;;;10.30;75.90;;;;;;5063639;28;20039;-65
2023/12/30 00:13:44;;;;;;;4.28;1.42;;;10.30;75.90;;;;;;5065262;28;20029;-65
2023/12/30 00:16:10;;;;;;;5.03;1.63;;;10.30;75.90;;;;;;5044284;28;20473;-65
2023/12/30 00:18:36;;;;;;;3.95;1.60;;;10.30;75.80;;;;;;5052964;28;20456;-65
2023/12/30 00:21:02;;;;;;;5.25;1.30;;;10.30;75.80;;;;;;5077478;28;20028;-65
2023/12/30 00:23:28;;;;;;;6.00;1.50;;;10.30;75.80;;;;;;5073752;28;20116;-65
2023/12/30 00:25:54;;;;;;;8.00;1.20;;;10.30;75.80;;;;;;5069504;28;20021;-65
2023/12/30 00:28:21;;;;;;;5.70;1.20;;;10.20;75.80;;;;;;5064357;28;20037;-65
2023/12/30 00:30:48;;;;;;;4.75;1.48;;;10.20;75.90;;;;;;5070470;28;20036;-65
2023/12/30 00:33:14;;;;;;;6.53;1.73;;;10.20;75.90;;;;;;5068128;28;20032;-65
2023/12/30 00:35:40;;;;;;;4.88;1.45;;;10.20;75.90;;;;;;5070456;28;20021;-65
2023/12/30 00:38:06;;;;;;;6.88;1.77;;;10.20;75.90;;;;;;5069092;28;20075;-65
2023/12/30 00:40:31;;;;;;;7.30;1.85;;;10.20;75.90;;;;;;5070474;28;20039;-65
2023/12/30 00:42:57;;;;;;;11.00;2.50;;;10.10;75.80;;;;;;5057468;28;20029;-65
2023/12/30 00:45:23;;;;;;;6.15;1.65;;;10.20;75.90;;;;;;5057635;28;20458;-65
2023/12/30 00:47:49;;;;;;;4.63;1.23;;;10.20;75.90;;;;;;5052480;28;20107;-65
2023/12/30 00:50:14;;;;;;;5.30;1.60;;;10.10;75.90;;;;;;5056711;28;20456;-65
2023/12/30 00:52:40;;;;;;;5.35;1.60;;;10.10;75.90;;;;;;5072968;28;20112;-65
2023/12/30 00:55:07;;;;;;;7.70;1.90;;;10.10;75.90;;;;;;5055013;28;20070;-65
2023/12/30 00:57:32;;;;;;;7.80;1.70;;;10.10;75.90;;;;;;5075301;28;20395;-65
2023/12/30 00:59:58;;;;;;;5.43;1.45;;;10.10;75.90;;;;;;5064777;28;20120;-65
2023/12/30 01:02:24;;;;;;;4.22;1.70;;;10.10;75.90;;;;;;5070004;28;20034;-65
2023/12/30 01:04:51;;;;;;;7.97;1.85;;;10.10;76.00;;;;;;5061519;28;20437;-65
2023/12/30 01:07:17;;;;;;;7.35;1.83;;;10.10;76.00;;;;;;5061363;28;20139;-65
2023/12/30 01:09:42;;;;;;;7.03;1.63;;;10.00;75.90;;;;;;5069856;28;20057;-65
2023/12/30 01:12:08;;;;;;;4.82;1.63;;;10.00;75.90;;;;;;5068024;28;20078;-65
2023/12/30 01:14:35;;;;;;;6.45;1.65;;;10.10;75.90;;;;;;5050710;28;20343;-65
2023/12/30 01:17:01;;;;;;;6.90;1.90;;;10.10;75.90;;;;;;5062699;28;20094;-65
2023/12/30 01:19:27;;;;;;;9.38;2.10;;;10.10;75.80;;;;;;5075462;28;20111;-65
2023/12/30 01:21:52;;;;;;;9.55;2.05;;;10.10;75.70;;;;;;5060031;28;20436;-65
2023/12/30 01:24:18;;;;;;;6.72;1.63;;;10.10;75.70;;;;;;5069320;28;20033;-65
2023/12/30 01:26:44;;;;;;;6.80;1.60;;;10.10;75.70;;;;;;5056841;28;20032;-65
2023/12/30 01:29:10;;;;;;;4.95;1.52;;;10.10;75.70;;;;;;5070404;28;20039;-65
2023/12/30 01:31:35;;;;;;;4.72;1.35;;;10.00;75.80;;;;;;5071605;28;20497;-65
2023/12/30 01:34:01;;;;;;;4.43;1.35;;;10.00;75.80;;;;;;5072542;28;20082;-65
2023/12/30 01:36:27;;;;;;;8.02;1.83;;;10.00;75.90;;;;;;5054981;28;20064;-65
2023/12/30 01:38:53;;;;;;;10.77;1.98;;;10.00;75.90;;;;;;5067138;28;20029;-65
2023/12/30 01:41:21;;;;;;;7.63;1.85;;;10.00;75.90;;;;;;5063429;28;20021;-65
2023/12/30 01:43:47;;;;;;;6.65;1.50;;;10.00;76.00;;;;;;5057014;28;20462;-65
2023/12/30 01:46:13;;;;;;;8.75;2.10;;;10.00;76.00;;;;;;5054898;28;20128;-65
2023/12/30 01:48:39;;;;;;;7.28;2.40;;;10.00;76.00;;;;;;5069253;28;20028;-65
2023/12/30 01:51:07;;;;;;;7.10;1.55;;;10.00;76.00;;;;;;5039234;28;20349;-65
2023/12/30 01:53:38;;;;;;;7.88;1.83;;;10.00;75.90;;;;;;5061263;28;20358;-65
2023/12/30 01:56:05;;;;;;;5.60;1.75;;;10.00;75.80;;;;;;5060171;28;20071;-65
2023/12/30 01:58:31;;;;;;;5.05;1.55;;;10.00;75.80;;;;;;5060008;28;20113;-65
2023/12/30 02:00:59;;;;;;;6.15;1.30;;;10.00;75.80;;;;;;5064512;28;20397;-65
2023/12/30 02:03:25;;;;;;;8.73;1.77;;;10.00;75.80;;;;;;5054632;28;20083;-65
2023/12/30 02:05:51;;;;;;;8.32;1.92;;;10.00;75.90;;;;;;5042472;28;20087;-65
2023/12/30 02:08:17;;;;;;;7.88;1.70;;;10.00;75.90;;;;;;5055171;28;20350;-65
2023/12/30 02:10:43;;;;;;;6.78;1.52;;;10.00;76.00;;;;;;5068389;28;20037;-65
2023/12/30 02:13:10;;;;;;;9.20;1.48;;;10.00;76.00;;;;;;5041059;28;20029;-65
2023/12/30 02:15:36;;;;;;;6.47;1.67;;;10.00;76.00;;;;;;5060095;28;20040;-65
2023/12/30 02:18:02;;;;;;;7.32;1.60;;;10.00;76.00;;;;;;5053422;28;20037;-65
2023/12/30 02:20:30;;;;;;;6.80;1.75;;;10.00;76.00;;;;;;5056689;28;20025;-65
2023/12/30 02:22:56;;;;;;;10.10;1.73;;;10.00;76.00;;;;;;5068188;28;20031;-65
2023/12/30 02:25:22;;;;;;;10.35;2.08;;;10.00;76.00;;;;;;5058322;28;20167;-65
2023/12/30 02:27:48;;;;;;;7.65;1.50;;;10.10;76.10;;;;;;5057558;28;20124;-65
2023/12/30 02:30:14;;;;;;;7.45;1.63;;;10.10;76.10;;;;;;5056226;28;20048;-65
2023/12/30 02:32:40;;;;;;;7.82;1.98;;;10.10;76.10;;;;;;5057081;28;20389;-65
2023/12/30 02:35:07;;;;;;;7.15;2.13;;;10.10;76.20;;;;;;5039676;28;20352;-65
2023/12/30 02:37:33;;;;;;;9.05;1.70;;;10.10;76.20;;;;;;5038452;28;20061;-65
2023/12/30 02:39:58;;;;;;;7.60;1.58;;;10.10;76.20;;;;;;5053745;28;20083;-65
2023/12/30 02:42:24;;;;;;;11.02;1.70;;;10.10;76.30;;;;;;5045735;28;20014;-65
2023/12/30 02:44:52;;;;;;;7.93;1.75;;;10.10;76.30;;;;;;5056113;28;20390;-65
2023/12/30 02:47:17;;;;;;;6.50;1.65;;;10.00;76.20;;;;;;5054740;28;20072;-65
2023/12/30 02:49:44;;;;;;;10.88;1.60;;;10.10;76.30;;;;;;5037138;28;20029;-65
2023/12/30 02:52:11;;;;;;;11.63;2.08;;;10.10;76.30;;;;;;5065774;28;20034;-65
2023/12/30 02:54:37;;;;;;;8.57;1.83;;;10.10;76.30;;;;;;5062566;28;21598;-65
2023/12/30 02:57:03;;;;;;;8.98;1.95;;;10.10;76.20;;;;;;5040343;28;20132;-65
2023/12/30 02:59:29;;;;;;;4.90;1.67;;;10.10;76.90;;;;;;5056699;28;20031;-65
2023/12/30 03:01:55;;;;;;;8.73;1.60;;;10.10;76.30;;;;;;5043851;28;20028;-65
2023/12/30 03:04:21;;;;;;;8.32;2.40;;;10.10;76.40;;;;;;5044735;28;20029;-65
2023/12/30 03:06:47;;;;;;;6.72;1.85;;;10.10;76.40;;;;;;5043713;28;20075;-65
2023/12/30 03:09:12;;;;;;;6.90;1.83;;;10.10;77.10;;;;;;5036213;28;20041;-65
2023/12/30 03:11:38;;;;;;;9.93;1.70;;;10.10;76.40;;;;;;5034637;28;20442;-65
2023/12/30 03:14:04;;;;;;;9.48;2.47;;;10.10;76.40;;;;;;5041417;28;20025;-65
2023/12/30 03:16:31;;;;;;;7.90;2.05;;;10.10;76.40;;;;;;5038530;28;20039;-65
2023/12/30 03:18:57;;;;;;;10.05;2.38;;;10.10;76.40;;;;;;5037272;28;20061;-65
2023/12/30 03:21:23;;;;;;;5.75;1.63;;;10.10;76.30;;;;;;5031511;28;20112;-65
2023/12/30 03:23:49;;;;;;;6.70;1.35;;;10.10;76.30;;;;;;5054813;28;20112;-65
2023/12/30 03:26:14;;;;;;;9.07;1.67;;;10.10;76.30;;;;;;5052601;28;20060;-65
2023/12/30 03:28:40;;;;;;;7.78;1.50;;;10.10;76.30;;;;;;5053539;28;20501;-65
2023/12/30 03:31:09;;;;;;;10.13;2.15;;;10.10;76.30;;;;;;5052102;28;20024;-65
2023/12/30 03:33:34;;;;;;;11.10;1.95;;;10.10;76.30;;;;;;5042266;28;20030;-65
2023/12/30 03:36:00;;;;;;;9.45;2.40;;;10.10;76.30;;;;;;5032149;28;20409;-65
2023/12/30 03:38:26;;;;;;;5.38;1.83;;;10.10;76.40;;;;;;5041902;28;20446;-67
2023/12/30 03:40:51;;;;;;;7.57;1.60;;;10.10;76.40;;;;;;5033837;28;20014;-65
2023/12/30 03:43:17;;;;;;;8.48;2.10;;;10.10;76.40;;;;;;5036895;28;20033;-65
2023/12/30 03:45:43;;;;;;;7.13;1.40;;;10.10;76.40;;;;;;5037626;28;20037;-65
2023/12/30 03:48:09;;;;;;;9.48;1.58;;;10.00;76.30;;;;;;5038796;28;20095;-65
2023/12/30 03:50:36;;;;;;;7.75;1.73;;;10.00;76.30;;;;;;5044609;28;20047;-65
2023/12/30 03:53:03;;;;;;;7.80;1.73;;;10.00;76.30;;;;;;5039985;28;20453;-65
2023/12/30 03:55:28;;;;;;;7.38;1.63;;;10.10;76.30;;;;;;5028032;28;20028;-65
2023/12/30 03:57:56;;;;;;;6.93;1.48;;;10.10;76.30;;;;;;5038794;28;20025;-65
2023/12/30 04:00:21;;;;;;;7.40;1.65;;;10.10;76.40;;;;;;5043018;28;20390;-65
2023/12/30 04:02:47;;;;;;;7.82;1.67;;;10.10;76.40;;;;;;5024428;28;20028;-65
2023/12/30 04:05:13;;;;;;;5.70;1.58;;;10.10;76.40;;;;;;5021668;28;20025;-65
2023/12/30 04:07:39;;;;;;;7.20;1.75;;;10.10;76.40;;;;;;5042639;28;20035;-65
2023/12/30 04:10:06;;;;;;;6.10;1.60;;;10.10;76.40;;;;;;5051893;28;20025;-65
2023/12/30 04:12:35;;;;;;;12.43;2.92;;;10.10;76.40;;;;;;5041007;28;20025;-65
2023/12/30 04:15:01;;;;;;;9.57;2.20;;;10.00;76.50;;;;;;5041475;28;20029;-65
2023/12/30 04:17:27;;;;;;;7.82;1.52;;;10.00;76.60;;;;;;5037816;28;20065;-65
2023/12/30 04:19:52;;;;;;;9.02;2.05;;;10.00;76.50;;;;;;5053321;28;20112;-65
2023/12/30 04:22:18;;;;;;;9.73;2.10;;;10.00;76.60;;;;;;5047678;28;20152;-65
2023/12/30 04:24:44;;;;;;;6.85;1.70;;;10.00;76.60;;;;;;5039239;28;20430;-65
2023/12/30 04:27:10;;;;;;;11.00;1.70;;;10.00;76.60;;;;;;5036886;28;20053;-65
2023/12/30 04:29:35;;;;;;;9.98;2.22;;;10.00;76.70;;;;;;5043449;28;20450;-65
2023/12/30 04:32:01;;;;;;;7.00;1.60;;;10.00;76.80;;;;;;5043058;28;20454;-65
2023/12/30 04:34:27;;;;;;;7.07;1.60;;;10.00;76.80;;;;;;5048661;28;20029;-65
2023/12/30 04:36:53;;;;;;;9.63;2.00;;;10.00;76.80;;;;;;5045858;28;20088;-65
2023/12/30 04:39:18;;;;;;;7.30;1.95;;;10.00;76.80;;;;;;5024225;28;20482;-65
2023/12/30 04:41:44;;;;;;;8.30;1.50;;;10.00;76.80;;;;;;5042883;28;20067;-65
2023/12/30 04:44:10;;;;;;;8.73;2.30;;;9.90;76.80;;;;;;5020336;28;20018;-65
2023/12/30 04:46:36;;;;;;;9.23;2.55;;;10.00;76.80;;;;;;5023324;28;20107;-65
2023/12/30 04:49:02;;;;;;;7.20;2.00;;;9.90;76.80;;;;;;5040334;28;20029;-65
2023/12/30 04:51:30;;;;;;;6.28;2.08;;;10.00;76.80;;;;;;5029335;28;20025;-65
2023/12/30 04:53:56;;;;;;;6.80;2.13;;;9.90;76.80;;;;;;5047887;28;20040;-65
2023/12/30 04:56:23;;;;;;;8.38;1.70;;;9.90;76.80;;;;;;5036614;28;20041;-65
2023/12/30 04:58:49;;;;;;;8.80;1.52;;;9.90;76.80;;;;;;5028207;28;20470;-65
2023/12/30 05:01:16;;;;;;;6.72;1.77;;;9.90;76.80;;;;;;5037404;28;20029;-65
2023/12/30 05:03:44;;;;;;;6.85;1.63;;;9.90;76.80;;;;;;5042983;28;20044;-65
2023/12/30 05:06:24;;;;;;;9.77;2.15;;;9.90;76.80;;;;;;5054010;28;20533;-65
2023/12/30 05:08:53;;;;;;;7.72;1.83;;;10.00;76.70;;;;;;5043417;28;20029;-65
2023/12/30 05:11:25;;;;;;;8.65;2.13;;;9.90;76.70;;;;;;5055406;28;20063;-65
2023/12/30 05:13:53;;;;;;;7.40;1.77;;;9.90;76.60;;;;;;5049845;28;20025;-65
2023/12/30 05:16:19;;;;;;;9.68;1.75;;;9.90;76.60;;;;;;5038086;28;20044;-63
2023/12/30 05:18:44;;;;;;;8.85;2.08;;;9.90;76.60;;;;;;5024728;28;20021;-65
2023/12/30 05:21:17;;;;;;;8.63;1.80;;;9.90;76.60;;;;;;5040788;28;20032;-65
2023/12/30 05:23:44;;;;;;;6.93;1.77;;;9.90;76.60;;;;;;5039140;28;20026;-65
2023/12/30 05:26:14;;;;;;;8.05;1.60;;;9.90;76.60;;;;;;5041285;28;20057;-65
2023/12/30 05:28:40;;;;;;;11.10;1.73;;;9.90;76.60;;;;;;5038548;28;20454;-65
2023/12/30 05:31:06;;;;;;;9.95;1.92;;;9.90;76.60;;;;;;5047687;28;20032;-65
2023/12/30 05:33:31;;;;;;;8.35;1.60;;;9.90;76.60;;;;;;5038905;28;20029;-65
2023/12/30 05:35:57;;;;;;;7.85;1.52;;;9.90;76.60;;;;;;5037811;28;20068;-65
2023/12/30 05:38:23;;;;;;;6.60;1.25;;;9.80;76.50;;;;;;5039371;28;20034;-65
2023/12/30 05:40:49;;;;;;;11.30;2.00;;;9.80;76.60;;;;;;5047608;28;20025;-65
2023/12/30 05:43:14;;;;;;;11.07;2.10;;;9.80;76.70;;;;;;5054972;28;20085;-65
2023/12/30 05:45:41;;;;;;;13.73;1.75;;;9.80;76.70;;;;;;5054157;28;20037;-65
2023/12/30 05:48:08;;;;;;;8.05;1.60;;;9.80;76.70;;;;;;5055079;28;20108;-65
2023/12/30 05:50:34;;;;;;;10.55;2.03;;;9.80;76.70;;;;;;5054286;28;20065;-65
2023/12/30 05:53:00;;;;;;;7.15;1.52;;;9.80;76.60;;;;;;5054972;28;20020;-65
2023/12/30 05:55:25;;;;;;;8.10;1.85;;;9.80;76.70;;;;;;5053035;28;20457;-65
2023/12/30 05:57:51;;;;;;;6.90;1.98;;;9.80;76.70;;;;;;5054707;28;20116;-65
2023/12/30 06:00:19;;;;;;;11.75;2.05;;;9.80;76.70;;;;;;5053852;28;20067;-65
2023/12/30 06:02:45;;;;;;;8.88;2.00;;;9.80;76.70;;;;;;5053244;28;20120;-65
2023/12/30 06:05:11;;;;;;;6.72;2.35;;;9.80;76.60;;;;;;5055330;28;20027;-65
2023/12/30 06:07:40;;;;;;;6.88;1.92;;;9.80;76.60;;;;;;5043461;28;20095;-65
2023/12/30 06:10:07;;;;;;;6.85;1.85;;;9.80;76.60;;;;;;5037358;28;20025;-65
2023/12/30 06:12:33;;;;;;;6.93;2.03;;;9.80;76.70;;;;;;5053661;28;20039;-65
2023/12/30 06:14:59;;;;;;;6.45;1.60;;;9.80;76.70;;;;;;5038446;28;20033;-65
2023/12/30 06:17:24;;;;;;;11.00;2.08;;;9.80;76.70;;;;;;5053613;28;20071;-65
2023/12/30 06:19:50;;;;;;;9.00;1.73;;;9.70;76.70;;;;;;5052712;28;20063;-65
2023/12/30 06:22:16;;;;;;;8.65;2.35;;;9.80;76.90;;;;;;5054528;28;20068;-65
2023/12/30 06:24:42;;;;;;;10.43;3.08;;;9.70;76.80;;;;;;5054026;28;20025;-65
2023/12/30 06:27:07;;;;;;;9.40;2.08;;;9.70;76.80;;;;;;5054505;28;20028;-65
2023/12/30 06:29:33;;;;;;;9.27;2.08;;;9.70;76.80;;;;;;5054174;28;20017;-65
2023/12/30 06:31:59;;;;;;;11.57;2.63;;;9.70;76.80;;;;;;5072294;28;20067;-65
2023/12/30 06:34:24;;;;;;;8.18;1.83;;;9.70;76.70;;;;;;5053580;28;20109;-65
2023/12/30 06:36:50;;;;;;;12.73;2.78;;;9.80;76.80;;;;;;5065403;28;20036;-65
2023/12/30 06:39:17;;;;;;;8.80;1.73;;;9.70;76.70;;;;;;5062660;28;20036;-65
2023/12/30 06:41:43;;;;;;;8.30;1.83;;;9.70;76.80;;;;;;5070211;28;20025;-64
2023/12/30 06:44:09;;;;;;;7.97;1.73;;;9.70;76.90;;;;;;5056613;28;20449;-65
2023/12/30 06:46:35;;;;;;;10.43;2.28;;;9.70;76.90;;;;;;5068682;28;20032;-65
2023/12/30 06:49:01;;;;;;;10.20;2.92;;;9.70;77.00;;;;;;5068639;28;20029;-65
2023/12/30 06:51:27;;;;;;;9.18;2.50;;;9.70;77.00;;;;;;5070232;28;20457;-65
2023/12/30 06:53:53;;;;;;;8.88;2.35;;;9.70;77.00;;;;;;5068591;28;20446;-65
2023/12/30 06:56:19;;;;;;;8.73;2.45;;;9.70;77.00;;;;;;5054697;28;20338;-65
2023/12/30 06:58:45;;;;;;;11.68;2.25;;;9.70;77.00;;;;;;5040569;28;20036;-65
2023/12/30 07:01:12;;;;;;;9.70;2.92;;;9.70;77.10;;;;;;5066375;28;20028;-65
2023/12/30 07:03:38;;;;;;;10.85;2.83;;;9.70;77.20;;;;;;5059555;28;20024;-65
2023/12/30 07:06:04;;;;;;;7.68;2.40;;;9.70;77.20;;;;;;5060419;28;20412;-65
2023/12/30 07:08:30;;;;;;;12.68;2.40;;;9.70;77.20;;;;;;5060784;28;20083;-65
2023/12/30 07:10:56;;;;;;;8.85;2.78;;;9.70;77.30;;;;;;5054343;28;20045;-65
2023/12/30 07:13:21;;;;;;;10.38;3.22;;;9.70;77.30;;;;;;5054053;28;20037;-65
2023/12/30 07:15:47;;;;;;;13.27;2.78;;;9.70;77.30;;;;;;5061949;28;20037;-65
2023/12/30 07:18:13;;;;;;;8.13;2.42;;;9.70;77.40;;;;;;5064295;28;20029;-64
2023/12/30 07:20:39;;;;;;;8.88;2.13;;;9.60;77.40;;;;;;5063975;28;20035;-65
2023/12/30 07:23:06;;;;;;;10.38;2.58;;;9.60;77.50;;;;;;5070829;28;20029;-66
2023/12/30 07:25:32;;;;;;;7.75;2.72;;;9.60;77.50;;;;;;5062138;28;20024;-65
2023/12/30 07:27:58;;;;;;;11.88;3.03;;;9.60;77.60;;;;;;5048387;28;20048;-65
2023/12/30 07:30:23;;;;;;;10.10;2.95;;;9.60;77.60;;;;;;5052734;28;20047;-65
2023/12/30 07:32:49;;;;;;;8.35;3.13;;;9.60;77.50;;;;;;5054928;28;20029;-64
2023/12/30 07:35:15;;;;;;;8.73;2.72;;;9.60;77.60;;;;;;5055263;28;20032;-65
2023/12/30 07:37:41;;;;;;;13.35;3.00;;;9.60;77.50;;;;;;5064505;28;20048;-64
2023/12/30 07:40:07;;;;;;;7.65;2.65;;;9.60;77.50;;;;;;5073958;28;20144;-65
2023/12/30 07:42:33;;;;;;;8.32;2.15;;;9.60;77.60;;;;;;5074332;28;20028;-64
2023/12/30 07:44:59;;;;;;;9.48;2.95;;;9.60;77.60;;;;;;5065130;28;20021;-65
2023/12/30 07:47:27;;;;;;;6.72;2.47;;;9.60;77.60;;;;;;5057205;28;20047;-65
2023/12/30 07:49:53;;;;;;;10.68;2.53;;;9.60;77.60;;;;;;5074345;28;20113;-65
2023/12/30 07:52:19;;;;;;;8.68;2.75;;;9.60;77.60;;;;;;5072847;28;20060;-65
2023/12/30 07:54:45;;;;;;;11.98;3.17;;;9.60;77.60;;;;;;5063162;28;20040;-65
2023/12/30 07:57:11;;;;;;;9.80;2.75;;;9.60;77.60;;;;;;5062558;28;20032;-65
2023/12/30 07:59:37;;;;;;;11.68;2.47;;;9.60;77.70;;;;;;5028828;28;20032;-65
2023/12/30 08:02:03;;;;;;;9.52;2.20;;;9.60;77.60;;;;;;5058466;28;20052;-65
2023/12/30 08:04:28;;;;;;;10.18;2.65;;;9.60;77.60;;;;;;5054082;28;20025;-65
2023/12/30 08:06:54;;;;;;;13.38;3.28;;;9.60;77.60;;;;;;5044346;28;20036;-66
2023/12/30 08:09:22;;;;;;;11.25;3.25;;;9.60;77.60;;;;;;5036085;28;20028;-66
2023/12/30 08:11:48;;;;;;;12.02;2.25;;;9.60;77.60;;;;;;5051616;28;20120;-64
2023/12/30 08:14:15;;;;;;;13.32;2.80;;;9.60;77.50;;;;;;5049877;28;20041;-66
2023/12/30 08:16:40;;;;;;;15.27;2.70;;;9.60;77.50;;;;;;5052292;28;20037;-66
2023/12/30 08:19:06;;;;;;;9.75;2.67;;;9.60;77.40;;;;;;5056915;28;20036;-67
2023/12/30 08:21:32;;;;;;;7.80;2.28;;;9.60;77.40;;;;;;5051540;28;20048;-65
2023/12/30 08:23:59;;;;;;;9.45;2.30;;;9.70;77.40;;;;;;5051885;28;20412;-66
2023/12/30 08:26:26;;;;;;;12.93;2.92;;;9.70;77.40;;;;;;5052059;28;20064;-65
2023/12/30 08:28:52;;;;;;;10.43;2.35;;;9.70;77.40;;;;;;5047982;28;20029;-65
2023/12/30 08:31:18;;;;;;;8.73;2.30;;;9.70;77.40;;;;;;5054051;28;20028;-66
2023/12/30 08:33:45;;;;;;;10.63;2.38;;;9.70;77.50;;;;;;5056489;28;20051;-65
2023/12/30 08:36:10;;;;;;;12.93;2.88;;;9.70;77.50;;;;;;5066931;28;20029;-65
2023/12/30 08:38:36;;;;;;;10.32;2.05;;;9.70;77.40;;;;;;5062532;28;20207;-66
2023/12/30 08:41:02;;;;;;;8.68;2.25;;;9.80;78.10;;;;;;5056307;28;20017;-65
2023/12/30 08:43:31;;;;;;;9.55;2.40;;;9.90;77.40;;;;;;5054949;28;20354;-65
2023/12/30 08:45:57;;;;;;;10.15;2.20;;;9.80;77.30;;;;;;5055959;28;20060;-66
2023/12/30 08:48:23;;;;;;;10.75;2.20;;;9.90;77.30;;;;;;5055551;28;20033;-65
2023/12/30 08:50:48;;;;;;;9.90;2.45;;;9.90;77.20;;;;;;5058067;28;20036;-64
2023/12/30 08:53:15;;;;;;;9.90;2.08;;;9.90;77.20;;;;;;5057294;28;20025;-64
2023/12/30 08:55:41;;;;;;;10.82;2.30;;;10.00;77.20;;;;;;5056289;28;20327;-64
2023/12/30 08:58:07;;;;;;;8.57;2.47;;;10.10;77.20;;;;;;5054466;28;20358;-65
2023/12/30 09:00:34;;;;;;;7.60;2.50;;;10.10;77.10;;;;;;5056567;28;20433;-65
2023/12/30 09:02:59;;;;;;;8.95;2.55;;;10.10;77.00;;;;;;5037971;28;20014;-65
2023/12/30 09:05:25;;;;;;;11.23;2.92;;;10.10;76.90;;;;;;5045251;28;20372;-65
2023/12/30 09:07:51;;;;;;;12.52;2.42;;;10.20;77.00;;;;;;5067841;28;20434;-64
2023/12/30 09:10:18;;;;;;;12.35;3.00;;;10.20;76.90;;;;;;5069418;28;20127;-64
2023/12/30 09:12:45;;;;;;;9.50;2.50;;;10.30;76.90;;;;;;5072110;28;20078;-65
2023/12/30 09:15:11;;;;;;;9.30;1.90;;;10.30;76.80;;;;;;5056611;28;20032;-66
2023/12/30 09:17:36;;;;;;;7.03;1.80;;;10.30;76.80;;;;;;5054797;28;20021;-65
2023/12/30 09:20:03;;;;;;;14.30;2.50;;;10.30;76.80;;;;;;5059309;28;20466;-65
2023/12/30 09:22:29;;;;;;;15.55;2.42;;;10.30;76.80;;;;;;5055677;28;20033;-65
2023/12/30 09:24:55;;;;;;;12.52;2.20;;;10.30;76.80;;;;;;5063452;28;20137;-65
2023/12/30 09:27:22;;;;;;;11.23;2.55;;;10.30;76.80;;;;;;5071370;28;20432;-65
2023/12/30 09:29:48;;;;;;;9.65;2.35;;;10.30;76.80;;;;;;5049570;28;20032;-65
2023/12/30 09:32:14;;;;;;;12.13;2.92;;;10.30;76.80;;;;;;5058681;28;20081;-65
2023/12/30 09:34:39;;;;;;;10.27;2.65;;;10.30;76.90;;;;;;5063117;28;20521;-65
2023/12/30 09:37:05;;;;;;;8.60;2.05;;;10.30;76.90;;;;;;5074391;28;20051;-66
2023/12/30 09:39:31;;;;;;;9.85;2.40;;;10.30;76.90;;;;;;5054020;28;20029;-65
2023/12/30 09:41:57;;;;;;;10.57;2.33;;;10.30;76.90;;;;;;5069859;28;20344;-65
2023/12/30 09:44:25;;;;;;;10.10;2.65;;;10.30;77.00;;;;;;5042308;28;20025;-65
2023/12/30 09:46:54;;;;;;;10.73;2.97;;;10.30;77.00;;;;;;5071566;28;20044;-65
2023/12/30 09:49:20;;;;;;;9.25;2.70;;;10.30;77.00;;;;;;5056759;28;20422;-66
2023/12/30 09:51:46;;;;;;;7.88;2.20;;;10.40;77.10;;;;;;5040360;28;20068;-65
2023/12/30 09:54:12;;;;;;;9.32;2.90;;;10.30;77.00;;;;;;5064656;28;20442;-64
2023/12/30 09:56:39;;;;;;;9.13;2.50;;;10.40;77.10;;;;;;5075946;28;20025;-66
2023/12/30 09:59:06;;;;;;;10.20;2.55;;;10.40;77.10;;;;;;5061347;28;20036;-66
2023/12/30 10:01:32;;;;;;;13.95;2.83;;;10.40;77.00;;;;;;5056777;28;20038;-65
2023/12/30 10:03:58;;;;;;;13.93;2.70;;;10.40;77.00;;;;;;5060099;28;20074;-65
2023/12/30 10:06:25;;;;;;;8.82;1.83;;;10.50;77.10;;;;;;5065853;28;20028;-65
2023/12/30 10:08:51;;;;;;;9.60;2.20;;;10.50;77.00;;;;;;5055135;28;20401;-65
2023/12/30 10:11:17;;;;;;;11.70;2.85;;;10.50;77.00;;;;;;5067969;28;20029;-65
2023/12/30 10:13:44;;;;;;;10.18;2.90;;;10.50;77.00;;;;;;5052719;28;20024;-65
2023/12/30 10:16:09;;;;;;;13.35;3.05;;;10.50;77.00;;;;;;5037518;28;20038;-65
2023/12/30 10:18:36;;;;;;;10.35;2.55;;;10.50;77.00;;;;;;5038375;28;20025;-65
2023/12/30 10:21:05;;;;;;;7.72;1.90;;;10.50;77.00;;;;;;5072147;28;20024;-66
2023/12/30 10:23:33;;;;;;;8.13;2.55;;;10.50;77.00;;;;;;5063021;28;20102;-66
2023/12/30 10:26:00;;;;;;;8.73;2.00;;;10.50;77.00;;;;;;5055575;28;20449;-67
2023/12/30 10:28:27;;;;;;;6.43;1.85;;;10.50;76.90;;;;;;5062006;28;20049;-66
2023/12/30 10:31:03;;;;;;;11.25;2.22;;;10.60;77.00;;;;;;5036763;28;20051;-66
2023/12/30 10:33:30;;;;;;;10.70;2.15;;;10.60;77.00;;;;;;5055405;28;20037;-66
2023/12/30 10:35:56;;;;;;;7.45;1.85;;;10.60;77.00;;;;;;5051782;28;20107;-65
2023/12/30 10:38:23;;;;;;;9.30;2.40;;;10.60;76.90;;;;;;5054637;28;20029;-66
2023/12/30 10:40:50;;;;;;;11.77;2.25;;;10.60;77.00;;;;;;5052450;28;20026;-66
2023/12/30 10:43:18;;;;;;;8.82;2.28;;;10.70;77.00;;;;;;5055385;28;20028;-66
2023/12/30 10:45:53;;;;;;;13.25;2.58;;;10.70;77.00;;;;;;5036488;28;20381;-66
2023/12/30 10:48:20;;;;;;;8.85;2.50;;;10.70;77.00;;;;;;5054591;28;20025;-66
2023/12/30 10:50:50;;;;;;;10.60;2.20;;;10.70;77.00;;;;;;5037048;28;20021;-66
2023/12/30 10:53:38;;;;;;;13.57;2.75;;;10.80;77.00;;;;;;5053747;28;20033;-65
2023/12/30 10:56:06;;;;;;;11.73;2.33;;;10.80;76.90;;;;;;5054751;28;20086;-65
2023/12/30 10:58:35;;;;;;;11.10;2.60;;;10.80;77.00;;;;;;5053469;28;20540;-65
2023/12/30 11:01:05;;;;;;;10.35;2.35;;;10.80;76.90;;;;;;5052645;28;20085;-65
2023/12/30 11:03:32;;;;;;;12.02;2.42;;;10.80;76.90;;;;;;5051419;28;20084;-65
2023/12/30 11:06:15;;;;;;;13.88;2.97;;;10.80;77.00;;;;;;5055916;28;20021;-65
2023/12/30 11:08:43;;;;;;;9.38;2.50;;;10.80;77.00;;;;;;5051972;28;20049;-65
2023/12/30 11:11:12;;;;;;;10.00;2.83;;;10.80;77.00;;;;;;5054575;28;20021;-65
2023/12/30 11:13:41;;;;;;;15.30;2.60;;;10.80;77.10;;;;;;5056269;28;20017;-65
2023/12/30 11:16:14;;;;;;;9.35;2.20;;;10.90;77.20;;;;;;5055775;28;20078;-65
2023/12/30 11:18:53;;;;;;;9.68;2.33;;;10.90;77.10;;;;;;5053770;28;20017;-66
2023/12/30 11:21:42;;;;;;;8.98;2.45;;;10.90;77.10;;;;;;5052851;28;20033;-65
2023/12/30 11:24:11;;;;;;;11.80;2.22;;;10.90;77.00;;;;;;5052184;28;20029;-65
2023/12/30 11:26:40;;;;;;;11.07;3.40;;;10.90;77.10;;;;;;5053030;28;20029;-66
2023/12/30 11:29:10;;;;;;;10.70;2.45;;;10.90;77.10;;;;;;5055288;28;20510;-66
2023/12/30 11:31:39;;;;;;;12.35;3.10;;;11.00;77.20;;;;;;5052573;28;20032;-66
2023/12/30 11:34:05;;;;;;;15.98;3.38;;;11.00;77.20;;;;;;5054997;28;20072;-66
2023/12/30 11:36:31;;;;;;;9.95;3.10;;;11.00;77.20;;;;;;5048240;28;20021;-65
2023/12/30 11:38:58;;;;;;;10.65;3.33;;;11.00;77.20;;;;;;5053602;28;20033;-65
2023/12/30 11:41:26;;;;;;;12.82;3.08;;;11.00;77.30;;;;;;5052794;28;20021;-65
2023/12/30 11:43:56;;;;;;;14.85;3.97;;;11.00;77.20;;;;;;5052793;28;20021;-65
2023/12/30 11:46:22;;;;;;;10.35;2.67;;;11.00;77.20;;;;;;5051258;28;20049;-65
2023/12/30 11:48:48;;;;;;;9.93;2.90;;;11.00;77.20;;;;;;5034979;28;20013;-65
2023/12/30 11:51:20;;;;;;;9.52;2.63;;;11.10;77.40;;;;;;5052960;28;20468;-66
2023/12/30 11:53:46;;;;;;;15.88;3.50;;;11.10;77.40;;;;;;5054776;28;20025;-64
2023/12/30 11:56:12;;;;;;;14.35;3.45;;;11.10;77.40;;;;;;5053938;28;20021;-65
2023/12/30 11:58:38;;;;;;;14.80;4.03;;;11.10;77.40;;;;;;5052631;28;20412;-63
2023/12/30 12:01:04;;;;;;;9.55;3.55;;;11.10;77.40;;;;;;5053917;28;20063;-63
2023/12/30 12:03:29;;;;;;;13.85;3.42;;;11.20;77.40;;;;;;5054066;28;20099;-63
2023/12/30 12:05:55;;;;;;;12.52;5.00;;;11.20;77.50;;;;;;5051633;28;20037;-65
2023/12/30 12:08:22;;;;;;;13.95;4.38;;;11.20;77.40;;;;;;5056590;28;20068;-64
2023/12/30 12:10:48;;;;;;;13.95;4.40;;;11.30;77.50;;;;;;5056140;28;20060;-64
2023/12/30 12:13:24;;;;;;;13.38;4.32;;;11.30;77.50;;;;;;5056510;28;20044;-64
2023/12/30 12:15:51;;;;;;;12.57;3.90;;;11.30;77.50;;;;;;5055643;28;20029;-64
2023/12/30 12:18:18;;;;;;;12.48;4.63;;;11.30;77.40;;;;;;5056822;28;20041;-64
2023/12/30 12:20:45;;;;;;;13.02;4.00;;;11.30;77.50;;;;;;5057327;28;20409;-64
2023/12/30 12:23:11;;;;;;;10.88;4.10;;;11.40;77.50;;;;;;5057516;28;20029;-64
2023/12/30 12:25:37;;;;;;;11.88;3.75;;;11.40;77.50;;;;;;5055517;28;20029;-65
2023/12/30 12:28:11;;;;;;;12.82;5.03;;;11.40;77.50;;;;;;5056759;28;20025;-64
2023/12/30 12:30:37;;;;;;;8.90;3.42;;;11.40;77.50;;;;;;5055149;28;20021;-64
2023/12/30 12:33:04;;;;;;;14.50;5.22;;;11.40;77.50;;;;;;5054253;28;20037;-64
2023/12/30 12:35:30;;;;;;;13.35;3.90;;;11.40;77.60;;;;;;5051639;28;20025;-64
2023/12/30 12:37:59;;;;;;;13.32;4.18;;;11.40;77.60;;;;;;5053143;28;20033;-64
2023/12/30 12:40:25;;;;;;;11.50;3.63;;;11.50;77.60;;;;;;5058398;28;20025;-64
2023/12/30 12:42:52;;;;;;;13.68;4.78;;;11.50;77.60;;;;;;5057800;28;20032;-64